IGO011 VIDP-OEJN
Flight info
| Callsign | IGO011 |
|---|---|
| Flight time | N/A |
| Altitude | 36000 |
| Route | DUDUM6B DUDUM A474 NIKOT Q5 UUD J61 LAXOM L639 RASKI/N0463F380 DCT KIPOL L444 TOLDA DCT PEKEM DCT MEDPO DCT ITRUX Y511 ASMIS T218 IMGUT DCT VEMEM |
| Aircraft | A20N/M-SDE2E3FGHIRWXY/LB1 |
Departure
| Time | N/A |
|---|---|
| Airport | Indira Gandhi International Airport (VIDP) |
Arrival
| Time | 2026-05-06 10:46 |
|---|---|
| Airport | King Abdulaziz International Airport (OEJN) |
| Time | Latitude | Longitude | Altitude | Speed | Heading |
|---|---|---|---|---|---|
| 2026-05-06 10:17 | 22.39167 | 40.36379 | 38038 ft | 390 kts | 247° |
| 2026-05-06 10:17 | 22.38149 | 40.33649 | 38042 ft | 391 kts | 247° |
| 2026-05-06 10:18 | 22.36127 | 40.28235 | 38042 ft | 390 kts | 247° |
| 2026-05-06 10:18 | 22.34091 | 40.22788 | 38038 ft | 390 kts | 247° |
| 2026-05-06 10:19 | 22.32060 | 40.17361 | 38031 ft | 390 kts | 247° |
| 2026-05-06 10:19 | 22.30035 | 40.11955 | 38023 ft | 390 kts | 247° |
| 2026-05-06 10:20 | 22.27998 | 40.06524 | 38013 ft | 390 kts | 247° |
| 2026-05-06 10:20 | 22.26207 | 40.02047 | 38001 ft | 389 kts | 241° |
| 2026-05-06 10:21 | 22.23385 | 39.97055 | 37984 ft | 390 kts | 237° |
| 2026-05-06 10:21 | 22.19725 | 39.92746 | 37983 ft | 395 kts | 217° |
| 2026-05-06 10:22 | 22.17278 | 39.91373 | 37974 ft | 402 kts | 205° |
| 2026-05-06 10:22 | 22.14547 | 39.90678 | 37966 ft | 413 kts | 192° |
| 2026-05-06 10:22 | 22.11674 | 39.90744 | 37966 ft | 427 kts | 178° |
| 2026-05-06 10:22 | 22.08760 | 39.91632 | 37973 ft | 440 kts | 168° |
| 2026-05-06 10:23 | 22.02935 | 39.93618 | 37933 ft | 432 kts | 178° |
| 2026-05-06 10:23 | 22.00006 | 39.94082 | 37478 ft | 428 kts | 181° |
| 2026-05-06 10:23 | 21.97043 | 39.94250 | 36733 ft | 425 kts | 187° |
| 2026-05-06 10:24 | 21.94092 | 39.94153 | 36012 ft | 423 kts | 193° |
| 2026-05-06 10:24 | 21.91254 | 39.93494 | 35289 ft | 414 kts | 205° |
| 2026-05-06 10:24 | 21.88686 | 39.92126 | 34573 ft | 408 kts | 218° |
| 2026-05-06 10:24 | 21.86560 | 39.90177 | 33906 ft | 405 kts | 230° |
| 2026-05-06 10:25 | 21.84936 | 39.87724 | 33266 ft | 403 kts | 242° |
| 2026-05-06 10:25 | 21.83913 | 39.84923 | 32993 ft | 405 kts | 254° |
| 2026-05-06 10:25 | 21.83532 | 39.81894 | 32935 ft | 413 kts | 266° |
| 2026-05-06 10:25 | 21.83851 | 39.78803 | 32931 ft | 421 kts | 279° |
| 2026-05-06 10:26 | 21.84906 | 39.75830 | 32927 ft | 432 kts | 293° |
| 2026-05-06 10:26 | 21.86595 | 39.73118 | 32925 ft | 440 kts | 301° |
| 2026-05-06 10:26 | 21.90451 | 39.67937 | 32879 ft | 440 kts | 299° |
| 2026-05-06 10:27 | 21.91942 | 39.65109 | 32509 ft | 427 kts | 285° |
| 2026-05-06 10:27 | 21.92733 | 39.62066 | 31806 ft | 421 kts | 275° |
| 2026-05-06 10:27 | 21.93154 | 39.58983 | 31000 ft | 421 kts | 273° |
| 2026-05-06 10:27 | 21.93496 | 39.55843 | 30218 ft | 424 kts | 272° |
| 2026-05-06 10:28 | 21.93820 | 39.52676 | 29344 ft | 425 kts | 271° |
| 2026-05-06 10:28 | 21.93760 | 39.49514 | 28445 ft | 422 kts | 258° |
| 2026-05-06 10:28 | 21.92895 | 39.46492 | 27579 ft | 424 kts | 246° |
| 2026-05-06 10:28 | 21.91646 | 39.43609 | 26740 ft | 429 kts | 243° |
| 2026-05-06 10:29 | 21.90290 | 39.40716 | 25910 ft | 434 kts | 243° |
| 2026-05-06 10:29 | 21.88917 | 39.37799 | 25118 ft | 438 kts | 243° |
| 2026-05-06 10:29 | 21.87550 | 39.34857 | 24337 ft | 439 kts | 243° |
| 2026-05-06 10:29 | 21.86200 | 39.31913 | 23590 ft | 437 kts | 243° |
| 2026-05-06 10:30 | 21.84884 | 39.29010 | 22738 ft | 435 kts | 243° |
| 2026-05-06 10:30 | 21.83531 | 39.26108 | 21858 ft | 430 kts | 240° |
| 2026-05-06 10:30 | 21.81688 | 39.23651 | 21018 ft | 416 kts | 221° |
| 2026-05-06 10:30 | 21.79288 | 39.22007 | 20193 ft | 405 kts | 204° |
| 2026-05-06 10:31 | 21.76595 | 39.21316 | 19416 ft | 398 kts | 185° |
| 2026-05-06 10:31 | 21.73869 | 39.21648 | 18638 ft | 393 kts | 165° |
| 2026-05-06 10:31 | 21.71472 | 39.22945 | 17848 ft | 391 kts | 146° |
| 2026-05-06 10:31 | 21.69371 | 39.24750 | 16997 ft | 382 kts | 148° |
| 2026-05-06 10:32 | 21.67176 | 39.26294 | 16149 ft | 373 kts | 151° |
| 2026-05-06 10:32 | 21.64981 | 39.27759 | 15325 ft | 366 kts | 151° |
| 2026-05-06 10:32 | 21.62812 | 39.29132 | 14530 ft | 358 kts | 158° |
| 2026-05-06 10:32 | 21.60533 | 39.30141 | 13750 ft | 350 kts | 162° |
| 2026-05-06 10:33 | 21.58252 | 39.31011 | 12905 ft | 345 kts | 163° |
| 2026-05-06 10:33 | 21.56000 | 39.31849 | 12073 ft | 340 kts | 163° |
| 2026-05-06 10:33 | 21.53795 | 39.32677 | 11266 ft | 336 kts | 163° |
| 2026-05-06 10:33 | 21.51593 | 39.33515 | 10471 ft | 333 kts | 162° |
| 2026-05-06 10:34 | 21.49435 | 39.34343 | 9914 ft | 323 kts | 161° |
| 2026-05-06 10:34 | 21.47408 | 39.35131 | 9855 ft | 297 kts | 161° |
| 2026-05-06 10:34 | 21.45517 | 39.35876 | 9558 ft | 285 kts | 161° |
| 2026-05-06 10:34 | 21.43651 | 39.36612 | 9039 ft | 286 kts | 161° |
| 2026-05-06 10:35 | 21.41810 | 39.37338 | 8589 ft | 286 kts | 160° |
| 2026-05-06 10:35 | 21.39955 | 39.38067 | 8287 ft | 280 kts | 160° |
| 2026-05-06 10:35 | 21.38149 | 39.38750 | 8110 ft | 269 kts | 164° |
| 2026-05-06 10:35 | 21.36344 | 39.38960 | 7952 ft | 258 kts | 188° |
| 2026-05-06 10:36 | 21.34735 | 39.38281 | 7867 ft | 244 kts | 216° |
| 2026-05-06 10:36 | 21.33660 | 39.36960 | 7753 ft | 231 kts | 240° |
| 2026-05-06 10:36 | 21.33047 | 39.35405 | 7515 ft | 222 kts | 253° |
| 2026-05-06 10:36 | 21.32878 | 39.33787 | 7139 ft | 216 kts | 275° |
| 2026-05-06 10:37 | 21.33286 | 39.32295 | 6941 ft | 202 kts | 298° |
| 2026-05-06 10:37 | 21.34189 | 39.31189 | 6621 ft | 197 kts | 323° |
| 2026-05-06 10:37 | 21.35360 | 39.30429 | 6318 ft | 197 kts | 335° |
| 2026-05-06 10:37 | 21.36619 | 39.29868 | 6040 ft | 196 kts | 340° |
| 2026-05-06 10:38 | 21.37897 | 39.29350 | 5755 ft | 195 kts | 340° |
| 2026-05-06 10:38 | 21.39169 | 39.28855 | 5445 ft | 194 kts | 342° |
| 2026-05-06 10:38 | 21.40436 | 39.28392 | 5165 ft | 192 kts | 341° |
| 2026-05-06 10:38 | 21.41680 | 39.27904 | 4931 ft | 192 kts | 340° |
| 2026-05-06 10:39 | 21.42931 | 39.27403 | 4708 ft | 191 kts | 340° |
| 2026-05-06 10:39 | 21.44175 | 39.26913 | 4476 ft | 190 kts | 341° |
| 2026-05-06 10:39 | 21.45412 | 39.26425 | 4243 ft | 187 kts | 341° |
| 2026-05-06 10:39 | 21.46594 | 39.25960 | 4048 ft | 173 kts | 341° |
| 2026-05-06 10:40 | 21.47671 | 39.25536 | 3817 ft | 157 kts | 341° |
| 2026-05-06 10:40 | 21.48649 | 39.25152 | 3620 ft | 143 kts | 341° |
| 2026-05-06 10:40 | 21.49564 | 39.24792 | 3432 ft | 138 kts | 342° |
| 2026-05-06 10:40 | 21.50450 | 39.24443 | 3259 ft | 135 kts | 341° |
| 2026-05-06 10:41 | 21.51325 | 39.24097 | 3100 ft | 133 kts | 342° |
| 2026-05-06 10:41 | 21.52186 | 39.23759 | 2938 ft | 131 kts | 341° |
| 2026-05-06 10:41 | 21.53040 | 39.23421 | 2775 ft | 130 kts | 342° |
| 2026-05-06 10:41 | 21.53880 | 39.23089 | 2612 ft | 127 kts | 342° |
| 2026-05-06 10:42 | 21.54698 | 39.22766 | 2431 ft | 124 kts | 342° |
| 2026-05-06 10:42 | 21.55488 | 39.22455 | 2293 ft | 122 kts | 341° |
| 2026-05-06 10:42 | 21.56294 | 39.22137 | 2135 ft | 122 kts | 341° |
| 2026-05-06 10:42 | 21.57079 | 39.21829 | 1977 ft | 121 kts | 339° |
| 2026-05-06 10:43 | 21.57864 | 39.21519 | 1820 ft | 120 kts | 340° |
| 2026-05-06 10:43 | 21.58640 | 39.21213 | 1667 ft | 118 kts | 339° |
| 2026-05-06 10:43 | 21.59415 | 39.20907 | 1518 ft | 118 kts | 339° |
| 2026-05-06 10:44 | 21.60955 | 39.20300 | 1222 ft | 118 kts | 339° |
| 2026-05-06 10:44 | 21.61725 | 39.19996 | 1064 ft | 119 kts | 339° |
| 2026-05-06 10:44 | 21.62502 | 39.19690 | 925 ft | 119 kts | 339° |
| 2026-05-06 10:44 | 21.63264 | 39.19381 | 796 ft | 118 kts | 338° |
| 2026-05-06 10:45 | 21.64035 | 39.19041 | 672 ft | 119 kts | 340° |
| 2026-05-06 10:45 | 21.64813 | 39.18736 | 519 ft | 120 kts | 342° |
| 2026-05-06 10:45 | 21.65595 | 39.18457 | 362 ft | 118 kts | 342° |
| 2026-05-06 10:45 | 21.66359 | 39.18167 | 207 ft | 117 kts | 341° |
| 2026-05-06 10:46 | 21.67114 | 39.17871 | 68 ft | 109 kts | 340° |
| 2026-05-06 10:46 | 21.67743 | 39.17617 | 54 ft | 76 kts | 342° |
| 2026-05-06 10:46 | 21.68070 | 39.17491 | 53 ft | 25 kts | 340° |
| 2026-05-06 10:46 | 21.68220 | 39.17420 | 51 ft | 24 kts | 327° |
| 2026-05-06 10:47 | 21.68339 | 39.17306 | 48 ft | 18 kts | 310° |
| 2026-05-06 10:47 | 21.68405 | 39.17219 | 49 ft | 0 kts | 310° |
| 2026-05-06 10:54 | 21.68407 | 39.17218 | 49 ft | 0 kts | 310° |
| 2026-05-06 10:54 | 21.68410 | 39.17214 | 49 ft | 1 kts | 310° |
| 2026-05-06 10:54 | 21.68416 | 39.17205 | 47 ft | 3 kts | 309° |
| 2026-05-06 10:54 | 21.68439 | 39.17176 | 50 ft | 7 kts | 311° |
| 2026-05-06 10:55 | 21.68482 | 39.17124 | 50 ft | 11 kts | 313° |
| 2026-05-06 10:55 | 21.68553 | 39.17065 | 49 ft | 14 kts | 332° |
| 2026-05-06 10:55 | 21.68649 | 39.17026 | 49 ft | 15 kts | 340° |
| 2026-05-06 10:55 | 21.68750 | 39.16986 | 49 ft | 16 kts | 340° |
| 2026-05-06 10:56 | 21.68851 | 39.16946 | 47 ft | 17 kts | 340° |
| 2026-05-06 10:56 | 21.68965 | 39.16901 | 46 ft | 18 kts | 340° |
| 2026-05-06 10:56 | 21.69085 | 39.16854 | 46 ft | 19 kts | 339° |
| 2026-05-06 10:56 | 21.69194 | 39.16810 | 44 ft | 16 kts | 339° |
| 2026-05-06 10:57 | 21.69306 | 39.16767 | 43 ft | 17 kts | 340° |
| 2026-05-06 10:57 | 21.69352 | 39.16710 | 45 ft | 10 kts | 273° |
| 2026-05-06 10:57 | 21.69334 | 39.16640 | 44 ft | 10 kts | 250° |
| 2026-05-06 10:57 | 21.69309 | 39.16568 | 44 ft | 10 kts | 249° |
| 2026-05-06 10:58 | 21.69283 | 39.16493 | 44 ft | 11 kts | 249° |
| 2026-05-06 10:58 | 21.69255 | 39.16414 | 41 ft | 12 kts | 249° |
| 2026-05-06 10:58 | 21.69225 | 39.16327 | 42 ft | 13 kts | 249° |
| 2026-05-06 10:58 | 21.69191 | 39.16232 | 40 ft | 14 kts | 249° |
| 2026-05-06 10:59 | 21.69155 | 39.16131 | 38 ft | 15 kts | 250° |
| 2026-05-06 10:59 | 21.69118 | 39.16018 | 37 ft | 17 kts | 251° |
| 2026-05-06 10:59 | 21.69077 | 39.15899 | 36 ft | 18 kts | 250° |
| 2026-05-06 10:59 | 21.69034 | 39.15772 | 35 ft | 18 kts | 250° |
| 2026-05-06 11:00 | 21.68989 | 39.15640 | 34 ft | 19 kts | 250° |
| 2026-05-06 11:00 | 21.68962 | 39.15559 | 33 ft | 2 kts | 249° |
| 2026-05-06 11:00 | 21.68956 | 39.15544 | 32 ft | 3 kts | 249° |
| 2026-05-06 11:00 | 21.68932 | 39.15475 | 33 ft | 16 kts | 249° |
| 2026-05-06 11:01 | 21.68890 | 39.15360 | 33 ft | 17 kts | 248° |
| 2026-05-06 11:01 | 21.68857 | 39.15264 | 33 ft | 12 kts | 250° |
| 2026-05-06 11:01 | 21.68845 | 39.15229 | 33 ft | 0 kts | 250° |
| 2026-05-06 11:02 | 21.68844 | 39.15225 | 33 ft | 4 kts | 250° |
| 2026-05-06 11:02 | 21.68832 | 39.15192 | 33 ft | 5 kts | 250° |
| 2026-05-06 11:03 | 21.68822 | 39.15161 | 33 ft | 4 kts | 252° |
| 2026-05-06 11:03 | 21.68825 | 39.15131 | 33 ft | 4 kts | 291° |
| 2026-05-06 11:03 | 21.68846 | 39.15107 | 33 ft | 7 kts | 328° |
| 2026-05-06 11:03 | 21.68914 | 39.15077 | 33 ft | 12 kts | 339° |
| 2026-05-06 11:04 | 21.68999 | 39.15043 | 33 ft | 14 kts | 340° |
| 2026-05-06 11:04 | 21.69091 | 39.15007 | 33 ft | 15 kts | 340° |
| 2026-05-06 11:04 | 21.69189 | 39.14968 | 33 ft | 15 kts | 340° |
| 2026-05-06 11:04 | 21.69291 | 39.14928 | 32 ft | 16 kts | 340° |
| 2026-05-06 11:05 | 21.69400 | 39.14885 | 32 ft | 17 kts | 340° |
| 2026-05-06 11:05 | 21.69516 | 39.14840 | 32 ft | 18 kts | 339° |
| 2026-05-06 11:05 | 21.69634 | 39.14793 | 32 ft | 19 kts | 340° |
| 2026-05-06 11:05 | 21.69758 | 39.14744 | 32 ft | 19 kts | 340° |
| 2026-05-06 11:06 | 21.69885 | 39.14693 | 32 ft | 20 kts | 340° |
| 2026-05-06 11:06 | 21.69948 | 39.14646 | 32 ft | 8 kts | 278° |
| 2026-05-06 11:06 | 21.69933 | 39.14586 | 32 ft | 9 kts | 253° |
| 2026-05-06 11:06 | 21.69933 | 39.14583 | 32 ft | 0 kts | 253° |